createdAt,value
2022-11-15T11:43:24.682Z,2.78
2022-11-15T11:46:14.429Z,2.70
2022-11-15T11:48:54.176Z,2.80
2022-11-15T11:51:30.005Z,2.88
2022-11-15T11:54:04.710Z,2.50
2022-11-15T11:56:37.345Z,2.60
2022-11-15T11:59:13.911Z,2.63
2022-11-15T12:01:44.211Z,2.40
2022-11-15T12:04:15.067Z,2.50
2022-11-15T12:07:09.548Z,2.70
2022-11-15T12:09:58.982Z,2.30
2022-11-15T12:15:22.323Z,2.60
2022-11-15T12:17:49.578Z,3.30
2022-11-15T12:20:22.652Z,2.50
2022-11-15T12:22:58.653Z,2.30
2022-11-15T12:25:40.498Z,2.42
2022-11-15T12:28:16.341Z,2.47
2022-11-15T12:30:57.156Z,2.50
2022-11-15T12:33:31.460Z,2.20
2022-11-15T12:36:01.067Z,2.38
2022-11-15T12:38:57.143Z,2.40
2022-11-15T12:41:35.531Z,2.40
2022-11-15T12:44:03.583Z,2.38
2022-11-15T12:46:30.224Z,2.17
2022-11-15T12:49:01.557Z,2.20
2022-11-15T12:51:43.620Z,2.50
2022-11-15T12:54:25.356Z,2.15
2022-11-15T12:57:18.188Z,2.20
2022-11-15T13:00:05.295Z,2.10
2022-11-15T13:02:36.051Z,2.88
2022-11-15T13:05:14.742Z,2.42
2022-11-15T13:07:41.446Z,2.40
2022-11-15T13:10:11.197Z,2.15
2022-11-15T13:12:40.301Z,2.00
2022-11-15T13:15:12.600Z,2.15
2022-11-15T13:17:45.248Z,2.22
2022-11-15T13:20:11.775Z,2.00
2022-11-15T13:22:52.004Z,2.25
2022-11-15T13:25:37.044Z,2.63
2022-11-15T13:28:15.564Z,2.47
2022-11-15T13:30:47.945Z,2.60
2022-11-15T13:33:23.934Z,2.50
2022-11-15T13:35:54.011Z,2.40
2022-11-15T13:38:31.032Z,2.83
2022-11-15T13:40:59.557Z,2.67
2022-11-15T13:43:35.107Z,2.20
2022-11-15T13:46:10.788Z,2.60
2022-11-15T13:48:38.022Z,2.45
2022-11-15T13:51:09.682Z,2.63
2022-11-15T13:53:41.746Z,2.75
2022-11-15T13:56:09.356Z,3.53
2022-11-15T13:58:40.488Z,3.78
2022-11-15T14:01:08.010Z,3.70
2022-11-15T14:03:42.327Z,3.80
2022-11-15T14:06:16.060Z,3.65
2022-11-15T14:08:59.106Z,3.60
2022-11-15T14:11:26.594Z,3.45
2022-11-15T14:14:13.560Z,3.63
2022-11-15T14:16:43.756Z,3.08
2022-11-15T14:19:30.280Z,3.40
2022-11-15T14:22:30.003Z,2.88
2022-11-15T14:25:06.402Z,3.00
2022-11-15T14:27:33.773Z,3.53
2022-11-15T14:30:01.005Z,2.97
2022-11-15T14:32:42.104Z,3.67
2022-11-15T14:35:26.997Z,3.58
2022-11-15T14:37:53.871Z,4.10
2022-11-15T14:40:22.735Z,4.60
2022-11-15T14:42:50.577Z,5.03
2022-11-15T14:45:20.217Z,4.70
2022-11-15T14:47:46.939Z,4.80
2022-11-15T14:50:16.149Z,4.60
2022-11-15T14:52:43.733Z,4.05
2022-11-15T14:55:24.913Z,4.20
2022-11-15T14:57:53.402Z,4.13
2022-11-15T15:00:20.487Z,4.45
2022-11-15T15:02:48.772Z,4.38
2022-11-15T15:05:21.746Z,5.75
2022-11-15T15:07:49.025Z,5.80
2022-11-15T15:10:39.039Z,5.50
2022-11-15T15:13:05.215Z,4.95
2022-11-15T15:15:37.124Z,4.88
2022-11-15T15:18:05.852Z,4.82
2022-11-15T15:20:33.696Z,4.70
2022-11-15T15:23:00.301Z,5.18
2022-11-15T15:25:33.757Z,5.53
2022-11-15T15:28:00.846Z,5.38
2022-11-15T15:30:29.453Z,5.53
2022-11-15T15:32:56.409Z,4.70
2022-11-15T15:35:23.147Z,5.65
2022-11-15T15:37:51.022Z,6.68
2022-11-15T15:40:21.050Z,5.93
2022-11-15T15:42:48.846Z,6.72
2022-11-15T15:45:16.516Z,6.28
2022-11-15T15:47:44.008Z,6.82
2022-11-15T15:50:33.243Z,7.40
2022-11-15T15:53:02.352Z,6.60
2022-11-15T15:55:29.730Z,6.45
2022-11-15T15:57:56.401Z,6.63
2022-11-15T16:00:25.687Z,7.07
2022-11-15T16:02:53.718Z,6.97
2022-11-15T16:05:21.112Z,6.68
2022-11-15T16:07:48.537Z,7.30
2022-11-15T16:10:35.744Z,8.05
2022-11-15T16:13:02.393Z,9.10
2022-11-15T16:15:32.114Z,9.63
2022-11-15T16:18:00.790Z,9.02
2022-11-15T16:20:38.339Z,8.80
2022-11-15T16:23:13.628Z,9.00
2022-11-15T16:25:47.984Z,8.85
2022-11-15T16:28:24.695Z,9.43
2022-11-15T16:31:05.819Z,9.75
2022-11-15T16:33:33.206Z,10.52
2022-11-15T16:36:00.178Z,9.88
2022-11-15T16:38:26.848Z,9.90
2022-11-15T16:40:53.464Z,7.68
2022-11-15T16:43:20.195Z,10.05
2022-11-15T16:45:46.947Z,9.02
2022-11-15T16:48:29.216Z,9.57
2022-11-15T16:50:57.664Z,9.35
2022-11-15T16:53:25.325Z,9.85
2022-11-15T16:55:51.958Z,9.00
2022-11-15T16:58:18.657Z,8.65
2022-11-15T17:00:45.323Z,7.70
2022-11-15T17:03:12.170Z,8.18
2022-11-15T17:05:38.863Z,8.07
2022-11-15T17:08:06.549Z,7.80
2022-11-15T17:10:33.165Z,7.13
2022-11-15T17:12:59.914Z,7.97
2022-11-15T17:15:26.537Z,7.68
2022-11-15T17:17:54.625Z,8.15
2022-11-15T17:20:24.645Z,9.88
2022-11-15T17:22:52.728Z,9.68
2022-11-15T17:25:19.760Z,10.90
2022-11-15T17:27:46.648Z,10.93
2022-11-15T17:30:15.576Z,8.95
2022-11-15T17:32:43.576Z,8.88
2022-11-15T17:35:15.557Z,10.52
2022-11-15T17:37:43.075Z,9.85
2022-11-15T17:40:10.470Z,11.02
2022-11-15T17:42:37.464Z,10.75
2022-11-15T17:45:09.711Z,11.60
2022-11-15T17:47:37.394Z,16.88
2022-11-15T17:50:04.650Z,30.75
2022-11-15T17:52:31.425Z,19.10
2022-11-15T17:54:58.115Z,22.60
2022-11-15T17:57:24.747Z,21.55
2022-11-15T17:59:51.335Z,22.95
2022-11-15T18:02:18.082Z,25.33
2022-11-15T18:04:45.300Z,22.48
2022-11-15T18:07:13.996Z,20.77
2022-11-15T18:09:43.952Z,25.05
2022-11-15T18:12:12.085Z,20.33
2022-11-15T18:14:39.349Z,20.20
2022-11-15T18:17:06.514Z,19.45
2022-11-15T18:19:33.708Z,15.98
2022-11-15T18:22:01.520Z,15.52
2022-11-15T18:24:31.256Z,15.65
2022-11-15T18:26:59.366Z,15.45
2022-11-15T18:29:26.530Z,18.35
2022-11-15T18:31:56.997Z,19.05
2022-11-15T18:34:25.485Z,17.38
2022-11-15T18:36:52.928Z,16.85
2022-11-15T18:39:20.281Z,15.38
2022-11-15T18:41:48.057Z,15.45
2022-11-15T18:44:15.836Z,17.88
2022-11-15T18:46:45.086Z,16.95
2022-11-15T18:49:13.734Z,16.83
2022-11-15T18:51:44.238Z,16.93
2022-11-15T18:54:13.065Z,16.65
2022-11-15T18:56:40.648Z,17.20
2022-11-15T18:59:08.772Z,16.17
2022-11-15T19:01:40.572Z,14.10
2022-11-15T19:04:13.258Z,14.50
2022-11-15T19:06:42.355Z,13.88
2022-11-15T19:09:10.749Z,14.23
2022-11-15T19:11:39.825Z,14.10
2022-11-15T19:14:08.770Z,14.95
2022-11-15T19:16:38.725Z,14.43
2022-11-15T19:19:08.160Z,13.70
2022-11-15T19:24:01.825Z,13.05
2022-11-15T19:26:29.230Z,13.50
2022-11-15T19:29:01.384Z,14.73
2022-11-15T19:31:30.009Z,19.23
2022-11-15T19:33:59.661Z,19.00
2022-11-15T19:36:34.515Z,18.73
2022-11-15T19:39:08.553Z,18.75
2022-11-15T19:41:37.932Z,18.83
2022-11-15T19:44:05.955Z,18.63
2022-11-15T19:46:32.761Z,15.57
2022-11-15T19:48:59.483Z,18.13
2022-11-15T19:51:28.279Z,18.65
2022-11-15T19:53:57.033Z,18.55
2022-11-15T19:56:24.086Z,17.10
2022-11-15T19:58:53.066Z,16.83
2022-11-15T20:01:22.694Z,15.52
2022-11-15T20:03:51.477Z,15.02
2022-11-15T20:06:20.106Z,14.77
2022-11-15T20:08:48.075Z,16.27
2022-11-15T20:11:15.930Z,15.85
2022-11-15T20:13:43.384Z,15.77
2022-11-15T20:16:17.062Z,16.13
2022-11-15T20:18:44.141Z,15.23
2022-11-15T20:21:10.778Z,15.93
2022-11-15T20:23:37.507Z,14.95
2022-11-15T20:26:04.227Z,15.35
2022-11-15T20:28:31.199Z,16.80
2022-11-15T20:31:00.550Z,16.98
2022-11-15T20:33:28.054Z,17.75
2022-11-15T20:35:55.152Z,16.33
2022-11-15T20:38:21.960Z,17.05
2022-11-15T20:40:49.978Z,18.92
2022-11-15T20:43:18.650Z,17.85
